createdAt,value
2022-08-11T00:03:06.095Z,100045.59
2022-08-11T00:06:08.519Z,100031.50
2022-08-11T00:09:15.290Z,100033.06
2022-08-11T00:12:18.643Z,100032.59
2022-08-11T00:15:21.625Z,100040.06
2022-08-11T00:18:23.783Z,100042.22
2022-08-11T00:22:01.851Z,100049.03
2022-08-11T00:24:54.972Z,100040.59
2022-08-11T00:27:58.835Z,100044.66
2022-08-11T00:31:05.530Z,100043.69
2022-08-11T00:34:12.842Z,100045.41
2022-08-11T00:37:21.598Z,100049.47
2022-08-11T00:40:36.828Z,100047.34
2022-08-11T00:43:59.529Z,100053.13
2022-08-11T00:47:27.567Z,100048.91
2022-08-11T00:50:47.063Z,100040.84
2022-08-11T00:54:06.227Z,100043.41
2022-08-11T00:57:37.308Z,100047.09
2022-08-11T01:00:58.010Z,100050.81
2022-08-11T01:04:20.202Z,100056.97
2022-08-11T01:08:08.704Z,100046.53
2022-08-11T01:11:55.610Z,100052.56
2022-08-11T01:15:41.250Z,100051.75
2022-08-11T01:19:12.502Z,100045.34
2022-08-11T01:22:59.070Z,100061.25
2022-08-11T01:26:38.047Z,100046.03
2022-08-11T01:30:15.512Z,100052.28
2022-08-11T01:33:53.841Z,100060.00
2022-08-11T01:37:25.023Z,100048.66
2022-08-11T01:40:38.754Z,100053.91
2022-08-11T01:44:21.027Z,100049.75
2022-08-11T01:47:53.068Z,100054.56
2022-08-11T01:51:22.903Z,100055.91
2022-08-11T01:54:31.532Z,100069.00
2022-08-11T01:57:45.994Z,100064.88
2022-08-11T02:01:28.926Z,100060.72
2022-08-11T02:04:48.542Z,100065.56
2022-08-11T02:07:58.388Z,100064.16
2022-08-11T02:11:35.123Z,100058.47
2022-08-11T02:15:04.499Z,100063.06
2022-08-11T02:18:52.479Z,100066.47
2022-08-11T02:22:24.146Z,100065.03
2022-08-11T02:25:36.024Z,100060.75
2022-08-11T02:28:55.766Z,100056.66
2022-08-11T02:32:30.689Z,100051.75
2022-08-11T02:35:47.189Z,100054.19
2022-08-11T02:39:00.867Z,100049.63
2022-08-11T02:42:32.799Z,100045.84
2022-08-11T02:46:01.147Z,100044.28
2022-08-11T02:49:21.065Z,100054.44
2022-08-11T02:52:36.288Z,100059.47
2022-08-11T02:56:09.188Z,100056.22
2022-08-11T02:59:42.896Z,100055.47
2022-08-11T03:03:08.158Z,100062.88
2022-08-11T03:06:24.891Z,100064.00
2022-08-11T03:09:42.423Z,100059.75
2022-08-11T03:13:34.657Z,100061.78
2022-08-11T03:16:54.992Z,100057.84
2022-08-11T03:20:19.058Z,100056.66
2022-08-11T03:23:33.691Z,100058.44
2022-08-11T03:27:07.436Z,100067.16
2022-08-11T03:30:17.825Z,100065.09
2022-08-11T03:33:49.568Z,100071.59
2022-08-11T03:37:16.805Z,100072.28
2022-08-11T03:40:39.664Z,100063.00
2022-08-11T03:43:58.345Z,100065.03
2022-08-11T03:47:21.791Z,100066.19
2022-08-11T03:50:55.730Z,100065.25
2022-08-11T03:54:34.940Z,100068.16
2022-08-11T03:57:49.579Z,100061.66
2022-08-11T04:01:08.222Z,100068.63
2022-08-11T04:04:29.061Z,100063.53
2022-08-11T04:08:16.111Z,100058.91
2022-08-11T04:12:17.318Z,100059.31
2022-08-11T04:16:12.498Z,100064.25
2022-08-11T04:19:51.075Z,100065.06
2022-08-11T04:22:52.459Z,100058.75
2022-08-11T04:26:18.842Z,100058.16
2022-08-11T04:30:03.534Z,100070.44
2022-08-11T04:33:43.504Z,100059.34
2022-08-11T04:37:30.060Z,100061.03
2022-08-11T04:40:56.423Z,100070.25
2022-08-11T04:44:38.740Z,100069.66
2022-08-11T04:48:25.184Z,100064.31
2022-08-11T04:52:37.464Z,100069.59
2022-08-11T04:56:16.428Z,100066.66
2022-08-11T04:59:51.861Z,100070.22
2022-08-11T05:03:30.159Z,100082.72
2022-08-11T05:06:52.004Z,100083.34
2022-08-11T05:10:18.605Z,100089.66
2022-08-11T05:13:53.672Z,100083.16
2022-08-11T05:17:19.294Z,100088.25
2022-08-11T05:20:42.719Z,100089.28
2022-08-11T05:24:07.944Z,100091.72
2022-08-11T05:27:30.864Z,100088.69
2022-08-11T05:30:51.894Z,100090.09
2022-08-11T05:34:18.342Z,100090.41
2022-08-11T05:37:28.941Z,100094.72
2022-08-11T05:40:52.948Z,100095.34
2022-08-11T05:44:20.126Z,100095.91
2022-08-11T05:47:44.130Z,100098.25
2022-08-11T05:51:12.024Z,100093.28
2022-08-11T05:54:36.762Z,100103.81
2022-08-11T05:57:51.517Z,100089.81
2022-08-11T06:00:54.127Z,100091.53
2022-08-11T06:04:14.215Z,100092.06
2022-08-11T06:07:17.668Z,100093.69
2022-08-11T06:10:30.949Z,100089.03
2022-08-11T06:13:33.827Z,100090.50
2022-08-11T06:16:35.694Z,100081.97
2022-08-11T06:19:41.394Z,100077.94
2022-08-11T06:22:48.577Z,100075.84
2022-08-11T06:25:56.505Z,100076.28
2022-08-11T06:29:01.545Z,100085.63
2022-08-11T06:32:06.119Z,100086.06
2022-08-11T06:35:13.837Z,100083.44
2022-08-11T06:38:42.240Z,100077.97
2022-08-11T06:41:53.925Z,100071.78
2022-08-11T06:45:16.615Z,100078.81
2022-08-11T06:48:22.313Z,100084.19
2022-08-11T06:51:24.791Z,100075.78
2022-08-11T06:54:27.506Z,100078.38
2022-08-11T06:57:48.018Z,100076.28
2022-08-11T07:00:56.810Z,100075.81
2022-08-11T07:04:06.518Z,100084.16
2022-08-11T07:08:00.150Z,100082.66
2022-08-11T07:12:09.481Z,100081.38
2022-08-11T07:16:11.549Z,100078.16
2022-08-11T07:19:19.868Z,100082.63
2022-08-11T07:22:43.285Z,100075.28
2022-08-11T07:26:08.439Z,100065.50
2022-08-11T07:29:14.435Z,100068.16
2022-08-11T07:32:24.231Z,100065.47
2022-08-11T07:35:36.673Z,100059.19
2022-08-11T07:38:53.829Z,100060.13
2022-08-11T07:41:58.209Z,100066.53
2022-08-11T07:45:18.848Z,100056.44
2022-08-11T07:48:39.998Z,100058.53
2022-08-11T07:52:02.366Z,100054.44
2022-08-11T07:55:08.427Z,100054.09
2022-08-11T07:58:44.884Z,100051.16
2022-08-11T08:02:05.991Z,100047.84
2022-08-11T08:05:26.765Z,100053.75
2022-08-11T08:08:46.807Z,100040.75
2022-08-11T08:12:07.629Z,100044.50
2022-08-11T08:15:30.447Z,100056.44
2022-08-11T08:18:35.895Z,100049.13
2022-08-11T08:21:39.221Z,100039.94
2022-08-11T08:24:41.812Z,100026.66
2022-08-11T08:27:45.722Z,100028.72
2022-08-11T08:30:51.729Z,100026.38
2022-08-11T08:33:53.546Z,100031.22
2022-08-11T08:36:55.549Z,100042.53
2022-08-11T08:39:59.127Z,100023.41
2022-08-11T08:43:10.138Z,100025.03
2022-08-11T08:46:14.089Z,100021.72
2022-08-11T08:49:19.264Z,100022.00
2022-08-11T08:52:42.707Z,100017.34
2022-08-11T08:55:46.180Z,100012.06
2022-08-11T08:58:49.337Z,100012.22
2022-08-11T09:01:58.336Z,100015.94
2022-08-11T09:05:00.561Z,100015.63
2022-08-11T09:08:03.007Z,100003.13
2022-08-11T09:11:24.196Z,100002.31
2022-08-11T09:14:51.464Z,99992.34
2022-08-11T09:18:06.569Z,100011.75
2022-08-11T09:21:08.298Z,100006.84
2022-08-11T09:24:28.921Z,100016.06
2022-08-11T09:27:30.435Z,100012.22
2022-08-11T09:30:31.887Z,100004.41
2022-08-11T09:33:36.355Z,100000.53
2022-08-11T09:37:00.159Z,100004.69
2022-08-11T09:40:21.393Z,100001.28
2022-08-11T09:43:47.773Z,99995.97
2022-08-11T09:46:50.307Z,99995.88
2022-08-11T09:49:59.973Z,99990.72
2022-08-11T09:53:35.136Z,99997.94
2022-08-11T09:56:47.710Z,99990.38
2022-08-11T09:59:52.080Z,99990.59
2022-08-11T10:02:56.691Z,99986.41
2022-08-11T10:06:33.081Z,99971.75
2022-08-11T10:09:40.093Z,99970.41
2022-08-11T10:12:48.478Z,99969.47
2022-08-11T10:15:59.846Z,99971.69
2022-08-11T10:19:12.560Z,99970.72
2022-08-11T10:22:34.627Z,99976.63
2022-08-11T10:25:55.403Z,99975.75
2022-08-11T10:29:12.528Z,99967.72
2022-08-11T10:32:57.736Z,99962.75
2022-08-11T10:36:00.165Z,99976.81
2022-08-11T10:39:06.613Z,99951.75
2022-08-11T10:42:41.759Z,99952.00
2022-08-11T10:46:15.664Z,99962.41
2022-08-11T10:49:19.032Z,99951.06
2022-08-11T10:52:39.955Z,99947.38
2022-08-11T10:59:10.568Z,99938.09
2022-08-11T11:02:15.093Z,99931.56
2022-08-11T11:05:24.943Z,99924.34
2022-08-11T11:12:18.435Z,99922.38
2022-08-11T11:15:40.804Z,99911.34
2022-08-11T11:18:44.267Z,99916.88
2022-08-11T11:22:22.877Z,99923.13
2022-08-11T11:25:40.592Z,99922.28
2022-08-11T11:29:03.905Z,99918.25
2022-08-11T11:32:11.598Z,99916.13
2022-08-11T11:35:16.176Z,99905.75
2022-08-11T11:38:18.903Z,99905.53
2022-08-11T11:41:26.411Z,99899.69
2022-08-11T11:44:29.269Z,99892.44
2022-08-11T11:47:33.028Z,99884.31
2022-08-11T11:50:37.317Z,99898.09
2022-08-11T11:53:39.032Z,99898.09
2022-08-11T11:56:42.805Z,99887.63
2022-08-11T12:00:03.375Z,99888.31
2022-08-11T12:03:12.042Z,99879.09
2022-08-11T12:06:14.598Z,99880.56
2022-08-11T12:09:22.223Z,99877.28
2022-08-11T12:12:43.754Z,99874.25
2022-08-11T12:16:04.286Z,99877.69
2022-08-11T12:19:18.052Z,99881.91
2022-08-11T12:22:38.420Z,99869.34
2022-08-11T12:26:16.524Z,99881.22
2022-08-11T12:29:27.069Z,99869.16
2022-08-11T12:32:31.818Z,99859.47
2022-08-11T12:35:35.209Z,99854.25
2022-08-11T12:38:37.269Z,99858.72
2022-08-11T12:42:00.317Z,99851.38
2022-08-11T12:45:26.013Z,99848.06
2022-08-11T12:48:59.078Z,99837.13
2022-08-11T12:52:14.924Z,99834.00
2022-08-11T12:56:07.568Z,99833.63
2022-08-11T12:59:29.079Z,99822.19
2022-08-11T13:02:49.464Z,99822.13
2022-08-11T13:05:55.465Z,99815.59
2022-08-11T13:09:01.090Z,99823.41
2022-08-11T13:12:21.609Z,99802.19
2022-08-11T13:15:25.611Z,99795.59
2022-08-11T13:18:27.677Z,99799.28
2022-08-11T13:21:29.991Z,99803.94
2022-08-11T13:24:34.120Z,99806.56
2022-08-11T13:27:36.362Z,99807.97
2022-08-11T13:30:57.620Z,99792.47
2022-08-11T13:33:59.451Z,99794.81
2022-08-11T13:37:05.133Z,99796.13
2022-08-11T13:40:07.684Z,99805.00
2022-08-11T13:43:10.236Z,99798.75
2022-08-11T13:46:21.169Z,99798.53
2022-08-11T13:49:25.031Z,99783.25
2022-08-11T13:52:28.168Z,99780.38
2022-08-11T13:55:33.235Z,99778.47
2022-08-11T13:58:53.971Z,99782.88
2022-08-11T14:02:21.777Z,99770.53
2022-08-11T14:05:31.041Z,99771.09
2022-08-11T14:08:38.466Z,99764.59
2022-08-11T14:12:21.392Z,99759.06
2022-08-11T14:15:34.063Z,99759.91
2022-08-11T14:18:39.856Z,99758.06
2022-08-11T14:22:07.017Z,99755.16
2022-08-11T14:25:10.542Z,99751.72
2022-08-11T14:28:43.853Z,99748.41
2022-08-11T14:31:36.788Z,99753.53
2022-08-11T14:34:43.867Z,99744.78
2022-08-11T14:37:45.679Z,99728.81
2022-08-11T14:41:07.187Z,99735.50
2022-08-11T14:44:28.203Z,99734.66
2022-08-11T14:47:33.824Z,99729.97
2022-08-11T14:50:36.605Z,99734.31
2022-08-11T14:53:38.376Z,99735.44
2022-08-11T14:56:40.225Z,99728.06
2022-08-11T14:59:43.642Z,99728.66
2022-08-11T15:03:07.290Z,99727.63
2022-08-11T15:06:08.866Z,99720.75
2022-08-11T15:09:10.415Z,99724.13
2022-08-11T15:12:32.766Z,99723.03
2022-08-11T15:15:54.262Z,99719.72
2022-08-11T15:18:56.358Z,99711.25
2022-08-11T15:22:16.647Z,99705.56
2022-08-11T15:25:20.858Z,99706.28
2022-08-11T15:28:43.623Z,99701.88
2022-08-11T15:32:04.104Z,99709.28
2022-08-11T15:35:25.329Z,99706.38
2022-08-11T15:38:39.985Z,99705.88
2022-08-11T15:42:07.152Z,99690.28
2022-08-11T15:45:28.904Z,99699.06
2022-08-11T15:48:33.192Z,99697.66
2022-08-11T15:51:40.886Z,99693.53
2022-08-11T15:54:46.264Z,99686.59
2022-08-11T15:58:08.748Z,99688.06
2022-08-11T16:01:31.928Z,99694.94
2022-08-11T16:04:36.571Z,99687.56
2022-08-11T16:07:40.942Z,99693.19
2022-08-11T16:10:44.022Z,99689.13
2022-08-11T16:13:48.127Z,99690.34
2022-08-11T16:16:56.087Z,99685.16
2022-08-11T16:19:59.643Z,99689.78
2022-08-11T16:23:04.800Z,99688.47
2022-08-11T16:27:10.952Z,99682.94
2022-08-11T16:29:32.208Z,99689.75
2022-08-11T16:32:36.686Z,99676.13
2022-08-11T16:35:59.441Z,99676.13
2022-08-11T16:39:02.781Z,99678.03
2022-08-11T16:43:04.502Z,99673.91
2022-08-11T16:46:05.125Z,99675.75
2022-08-11T16:49:10.734Z,99677.38
2022-08-11T16:52:12.991Z,99665.66
2022-08-11T16:55:52.181Z,99672.66
2022-08-11T16:58:57.918Z,99675.97
2022-08-11T17:02:12.664Z,99676.91
2022-08-11T17:05:54.180Z,99673.28
2022-08-11T17:09:17.020Z,99671.56
2022-08-11T17:12:39.798Z,99674.84
2022-08-11T17:16:06.211Z,99676.38
2022-08-11T17:20:39.956Z,99667.63
2022-08-11T17:23:02.686Z,99675.13
2022-08-11T17:26:04.746Z,99674.78
2022-08-11T17:29:06.929Z,99674.63
2022-08-11T17:32:31.970Z,99673.38
2022-08-11T17:35:53.990Z,99672.09
2022-08-11T17:38:55.765Z,99671.72
2022-08-11T17:42:18.360Z,99678.13
2022-08-11T17:45:40.586Z,99675.66
2022-08-11T17:48:47.677Z,99679.97
2022-08-11T17:52:09.741Z,99687.16
2022-08-11T17:55:51.873Z,99687.69
2022-08-11T17:59:12.851Z,99687.22
2022-08-11T18:02:52.001Z,99692.56
2022-08-11T18:05:54.131Z,99695.34
2022-08-11T18:09:15.865Z,99703.00
2022-08-11T18:12:35.826Z,99700.28
2022-08-11T18:16:02.238Z,99700.75
2022-08-11T18:19:24.556Z,99700.81
2022-08-11T18:22:49.898Z,99707.28
2022-08-11T18:26:12.964Z,99711.81
2022-08-11T18:29:42.089Z,99715.94
2022-08-11T18:33:39.727Z,99713.63
2022-08-11T18:36:47.877Z,99711.78
2022-08-11T18:40:14.988Z,99721.47
2022-08-11T18:43:38.103Z,99715.22
2022-08-11T18:47:07.834Z,99719.31
2022-08-11T18:50:39.564Z,99716.13
2022-08-11T18:54:06.027Z,99709.94
2022-08-11T18:57:27.734Z,99714.28
2022-08-11T19:00:54.353Z,99719.63
2022-08-11T19:04:17.218Z,99718.53
2022-08-11T19:07:39.990Z,99724.94
2022-08-11T19:11:03.007Z,99720.00
2022-08-11T19:14:24.899Z,99735.78
2022-08-11T19:17:46.875Z,99729.78
2022-08-11T19:21:08.282Z,99737.50
2022-08-11T19:24:32.769Z,99742.06
2022-08-11T19:27:53.315Z,99738.09
2022-08-11T19:31:14.578Z,99746.53
2022-08-11T19:34:38.666Z,99745.16
2022-08-11T19:37:59.418Z,99746.00
2022-08-11T19:41:52.247Z,99744.75
2022-08-11T19:45:00.866Z,99752.13
2022-08-11T19:48:31.692Z,99757.41
2022-08-11T19:51:54.799Z,99757.72
2022-08-11T19:55:15.672Z,99759.41
2022-08-11T19:58:36.279Z,99769.44
2022-08-11T20:02:01.206Z,99782.69
2022-08-11T20:05:33.318Z,99769.84
2022-08-11T20:08:58.575Z,99773.38
2022-08-11T20:12:23.126Z,99776.16
2022-08-11T20:15:45.726Z,99775.22
2022-08-11T20:19:08.938Z,99775.19
2022-08-11T20:22:32.473Z,99768.16
2022-08-11T20:25:55.740Z,99766.59
2022-08-11T20:29:25.585Z,99770.03
2022-08-11T20:32:46.367Z,99775.75
2022-08-11T20:36:07.716Z,99776.91
2022-08-11T20:39:29.144Z,99775.22
2022-08-11T20:42:52.407Z,99780.97
2022-08-11T20:46:13.104Z,99775.69
2022-08-11T20:49:42.314Z,99780.41
2022-08-11T20:53:09.439Z,99780.72
2022-08-11T20:56:30.739Z,99780.44
2022-08-11T20:59:56.644Z,99778.22
2022-08-11T21:03:35.723Z,99787.31
2022-08-11T21:06:57.977Z,99788.13
2022-08-11T21:10:23.393Z,99781.28
2022-08-11T21:13:51.309Z,99790.41
2022-08-11T21:17:26.766Z,99788.56
2022-08-11T21:20:50.464Z,99796.28
2022-08-11T21:24:16.060Z,99799.63
2022-08-11T21:27:38.284Z,99802.06
2022-08-11T21:30:58.381Z,99802.34
2022-08-11T21:34:20.169Z,99805.97
2022-08-11T21:37:40.199Z,99808.88
2022-08-11T21:41:03.398Z,99811.97
2022-08-11T21:44:25.207Z,99806.16
2022-08-11T21:47:45.521Z,99805.94
2022-08-11T21:51:05.273Z,99800.44
2022-08-11T21:54:26.100Z,99798.50
2022-08-11T21:57:50.192Z,99801.25
2022-08-11T22:01:11.274Z,99802.84
2022-08-11T22:04:32.236Z,99804.13
2022-08-11T22:07:52.431Z,99799.75
2022-08-11T22:11:13.552Z,99805.47
2022-08-11T22:14:33.875Z,99802.81
2022-08-11T22:17:57.848Z,99802.53
2022-08-11T22:22:03.055Z,99798.53
2022-08-11T22:24:59.936Z,99790.34
2022-08-11T22:28:20.173Z,99796.44
2022-08-11T22:31:41.147Z,99791.56
2022-08-11T22:35:01.491Z,99796.13
2022-08-11T22:38:21.942Z,99797.25
2022-08-11T22:41:42.698Z,99793.16
2022-08-11T22:45:02.774Z,99798.78
2022-08-11T22:48:28.386Z,99795.06
2022-08-11T22:51:48.794Z,99793.44
2022-08-11T22:55:09.889Z,99789.16
2022-08-11T22:58:30.950Z,99797.22
2022-08-11T23:01:54.729Z,99795.75
2022-08-11T23:05:18.750Z,99801.53
2022-08-11T23:08:39.681Z,99794.75
2022-08-11T23:12:06.128Z,99794.44
2022-08-11T23:15:29.183Z,99787.63
2022-08-11T23:18:49.770Z,99792.50
2022-08-11T23:22:10.576Z,99784.22
2022-08-11T23:25:30.899Z,99786.81
2022-08-11T23:28:52.002Z,99787.22
2022-08-11T23:32:13.050Z,99792.03
2022-08-11T23:35:38.652Z,99790.75
2022-08-11T23:38:59.525Z,99791.91
2022-08-11T23:42:21.191Z,99785.97
2022-08-11T23:45:42.259Z,99784.25
2022-08-11T23:49:02.512Z,99790.63
2022-08-11T23:52:23.737Z,99794.28
2022-08-11T23:55:44.216Z,99791.78
2022-08-11T23:59:04.955Z,99792.94
